Quantum Of The Seas — C6BH8 — position and weather

sailwx.info

Track history (hours):
 
Tides and Currents Weather Stations Pressure Air Temp Water Temp Dewpoint Dewpoint Depression Visibility Wind Speed Wind Dir Waves Ship Positions

Quantum Of The Seas

Last reported at 2017-May-25 10:21 UTC. Time now 2017-May-25 10:38 UTC.
Position N 31°22' E 122°37'.

Length 348 m; draft 9 m.

Type: Passenger vessel. MMSI: 311000267.

Date/timePositionNaut miles runAvg speedWind from/ knotsBaromVisibWave heightAir tempDewpointWater temp
2017-May-25 10:21N 31°22' E 122°37'514.9
2017-May-25 10:00N 31°25' E 122°42'815.3
2017-May-25 09:30N 31°28' E 122°51'814.8
2017-May-25 08:59N 31°31' E 122°59'714.9
2017-May-25 08:30N 31°33' E 123°07'714.8
2017-May-25 08:00N 31°36' E 123°15'17117.1
2017-May-24 22:00N 32°36' E 126°24'13717.1 320 / 201003.010.8
2017-May-24 14:00N 33°30' E 128°54'3617.8 240 / 101010.327.0
2017-May-24 12:00N 33°36' E 129°36'85 3.7 220 / 51010.327.0
2017-May-23 13:00N 32°12' E 129°48'40 2.7 1013.3
2017-May-22 22:00N 32°30' E 130°30'46312.8 1008.0
2017-May-21 09:59N 31°25' E 121°30'0 0.0
2017-May-21 09:29N 31°25' E 121°30'0 0.0
2017-May-21 08:59N 31°25' E 121°30'0 0.0
2017-May-21 08:29N 31°25' E 121°30'0 0.0
2017-May-21 07:47N 31°25' E 121°30'0 0.0
2017-May-21 07:29N 31°25' E 121°30'0 0.0
2017-May-21 06:50N 31°25' E 121°30'0 0.0
2017-May-21 06:29N 31°25' E 121°30'0 0.0
2017-May-21 05:56N 31°25' E 121°30'0 0.0
2017-May-21 05:29N 31°25' E 121°30'0 0.0
2017-May-21 04:59N 31°25' E 121°30'0 0.0
2017-May-21 04:29N 31°25' E 121°30'0 0.0
2017-May-21 03:56N 31°25' E 121°30'0 0.0
2017-May-21 03:29N 31°25' E 121°30'0 0.0
2017-May-21 02:53N 31°25' E 121°30'0 0.0
2017-May-21 02:29N 31°25' E 121°30'0 0.0
2017-May-21 01:59N 31°25' E 121°30'0 0.0
2017-May-21 01:29N 31°25' E 121°30'0 0.0
2017-May-21 00:59N 31°25' E 121°30'0 0.0
2017-May-21 00:29N 31°25' E 121°30'0 0.0
2017-May-20 23:50N 31°25' E 121°30'0 0.0
2017-May-20 23:29N 31°25' E 121°30'0 0.0
2017-May-20 22:59N 31°25' E 121°30'0 0.0
2017-May-20 22:29N 31°25' E 121°30'0 0.0
2017-May-20 21:47N 31°25' E 121°30'0 0.0
2017-May-20 21:29N 31°25' E 121°30'1 1.9
2017-May-20 21:01N 31°25' E 121°31'4 6.9
2017-May-20 20:30N 31°23' E 121°35'510.4
2017-May-20 20:00N 31°21' E 121°40'510.5
2017-May-20 19:31N 31°18' E 121°46'714.0
2017-May-20 19:00N 31°16' E 121°53'714.9
2017-May-20 18:30N 31°14' E 122°02'714.5
2017-May-20 18:00N 31°11' E 122°10'713.1
2017-May-20 17:30N 31°08' E 122°16'712.9
2017-May-20 16:59N 31°06' E 122°24'511.6
2017-May-20 16:30N 31°09' E 122°30'815.6
2017-May-20 16:00N 31°16' E 122°31'  
2017-May-16 16:48N 31°17' E 123°24'2812.6
2017-May-16 14:33N 31°07' E 122°53'711.9
2017-May-16 13:57N 31°05' E 122°45'711.8
2017-May-16 13:23N 31°05' E 122°38'612.2
2017-May-16 12:55N 31°05' E 122°31'611.7
2017-May-16 12:26N 31°05' E 122°24'1213.0
2017-May-16 11:31N 31°10' E 122°12'413.9
2017-May-16 11:14N 31°13' E 122°08'314.8
2017-May-16 11:00N 31°14' E 122°04'815.0
2017-May-16 10:30N 31°15' E 121°55'714.3
2017-May-16 10:01N 31°18' E 121°48'612.5
2017-May-16 09:30N 31°20' E 121°41'5 9.7
2017-May-16 09:00N 31°23' E 121°36'5 9.4
2017-May-16 08:30N 31°25' E 121°31'1 1.3
2017-May-16 07:56N 31°25' E 121°30'0 0.0
2017-May-16 07:26N 31°25' E 121°30'0 0.0
2017-May-16 06:53N 31°25' E 121°30'0 0.0
2017-May-16 06:29N 31°25' E 121°30'0 0.0
2017-May-16 05:56N 31°25' E 121°30'0 0.0
2017-May-16 05:29N 31°25' E 121°30'0 0.0
2017-May-16 04:59N 31°25' E 121°30'0 0.0
2017-May-16 04:29N 31°25' E 121°30'0 0.0
2017-May-16 03:47N 31°25' E 121°30'0 0.0
2017-May-16 03:29N 31°25' E 121°30'0 0.0
2017-May-16 02:59N 31°25' E 121°30'0 0.0
2017-May-16 02:29N 31°25' E 121°30'0 0.0
2017-May-16 01:47N 31°25' E 121°30'0 0.0
2017-May-16 01:26N 31°25' E 121°30'0 0.0
2017-May-16 00:59N 31°25' E 121°30'0 0.0
2017-May-16 00:23N 31°25' E 121°30'0 0.0
2017-May-15 23:53N 31°25' E 121°30'0 0.0
2017-May-15 23:29N 31°25' E 121°30'0 0.0
2017-May-15 22:56N 31°25' E 121°30'0 0.0
2017-May-15 22:20N 31°25' E 121°30'0 0.0
2017-May-15 21:59N 31°25' E 121°30'0 0.0
2017-May-15 21:29N 31°25' E 121°30'0 0.0
2017-May-15 20:50N 31°25' E 121°30'0 0.0
2017-May-15 20:26N 31°25' E 121°30'0 0.0
2017-May-15 19:47N 31°25' E 121°30'0 0.0
2017-May-15 19:29N 31°25' E 121°30'0 0.0
2017-May-15 18:50N 31°25' E 121°30'0 0.0
2017-May-15 18:26N 31°25' E 121°30'0 0.9
2017-May-15 18:00N 31°25' E 121°30'510.3
2017-May-15 17:30N 31°23' E 121°36'611.4
2017-May-15 16:57N 31°20' E 121°42'511.2
2017-May-15 16:30N 31°18' E 121°47'510.9
2017-May-15 16:00N 31°16' E 121°53'510.4
2017-May-15 15:31N 31°15' E 121°59'510.7
2017-May-15 15:00N 31°14' E 122°06'1212.3
2017-May-15 14:00N 31°07' E 122°17'713.7
2017-May-15 13:30N 31°06' E 122°25'612.9
2017-May-15 13:00N 31°11' E 122°31'917.4
2017-May-15 12:30N 31°19' E 122°33'815.6
2017-May-15 12:00N 31°23' E 122°41'816.2
2017-May-15 11:30N 31°26' E 122°50'816.0
2017-May-15 11:00N 31°27' E 122°59'816.0
2017-May-15 10:30N 31°29' E 123°08'  
Track history (hours):
 
Tides and Currents Weather Stations Pressure Air Temp Water Temp Dewpoint Dewpoint Depression Visibility Wind Speed Wind Dir Waves Ship Positions

Quantum Of The Seas

Last reported at 2017-May-25 10:21 UTC. Time now 2017-May-25 10:38 UTC.
Position N 31°22' E 122°37'.

Length 348 m; draft 9 m.

Type: Passenger vessel. MMSI: 311000267.

Date/timePositionNaut miles runAvg speedWind from/ knotsBaromVisibWave heightAir tempDewpointWater temp
2017-May-25 10:21N 31°22' E 122°37'514.9
2017-May-25 10:00N 31°25' E 122°42'815.3
2017-May-25 09:30N 31°28' E 122°51'814.8
2017-May-25 08:59N 31°31' E 122°59'714.9
2017-May-25 08:30N 31°33' E 123°07'714.8
2017-May-25 08:00N 31°36' E 123°15'17117.1
2017-May-24 22:00N 32°36' E 126°24'13717.1 320 / 201003.010.8
2017-May-24 14:00N 33°30' E 128°54'3617.8 240 / 101010.327.0
2017-May-24 12:00N 33°36' E 129°36'85 3.7 220 / 51010.327.0
2017-May-23 13:00N 32°12' E 129°48'40 2.7 1013.3
2017-May-22 22:00N 32°30' E 130°30'46312.8 1008.0
2017-May-21 09:59N 31°25' E 121°30'0 0.0
2017-May-21 09:29N 31°25' E 121°30'0 0.0
2017-May-21 08:59N 31°25' E 121°30'0 0.0
2017-May-21 08:29N 31°25' E 121°30'0 0.0
2017-May-21 07:47N 31°25' E 121°30'0 0.0
2017-May-21 07:29N 31°25' E 121°30'0 0.0
2017-May-21 06:50N 31°25' E 121°30'0 0.0
2017-May-21 06:29N 31°25' E 121°30'0 0.0
2017-May-21 05:56N 31°25' E 121°30'0 0.0
2017-May-21 05:29N 31°25' E 121°30'0 0.0
2017-May-21 04:59N 31°25' E 121°30'0 0.0
2017-May-21 04:29N 31°25' E 121°30'0 0.0
2017-May-21 03:56N 31°25' E 121°30'0 0.0
2017-May-21 03:29N 31°25' E 121°30'0 0.0
2017-May-21 02:53N 31°25' E 121°30'0 0.0
2017-May-21 02:29N 31°25' E 121°30'0 0.0
2017-May-21 01:59N 31°25' E 121°30'0 0.0
2017-May-21 01:29N 31°25' E 121°30'0 0.0
2017-May-21 00:59N 31°25' E 121°30'0 0.0
2017-May-21 00:29N 31°25' E 121°30'0 0.0
2017-May-20 23:50N 31°25' E 121°30'0 0.0
2017-May-20 23:29N 31°25' E 121°30'0 0.0
2017-May-20 22:59N 31°25' E 121°30'0 0.0
2017-May-20 22:29N 31°25' E 121°30'0 0.0
2017-May-20 21:47N 31°25' E 121°30'0 0.0
2017-May-20 21:29N 31°25' E 121°30'1 1.9
2017-May-20 21:01N 31°25' E 121°31'4 6.9
2017-May-20 20:30N 31°23' E 121°35'510.4
2017-May-20 20:00N 31°21' E 121°40'510.5
2017-May-20 19:31N 31°18' E 121°46'714.0
2017-May-20 19:00N 31°16' E 121°53'714.9
2017-May-20 18:30N 31°14' E 122°02'714.5
2017-May-20 18:00N 31°11' E 122°10'713.1
2017-May-20 17:30N 31°08' E 122°16'712.9
2017-May-20 16:59N 31°06' E 122°24'511.6
2017-May-20 16:30N 31°09' E 122°30'815.6
2017-May-20 16:00N 31°16' E 122°31'  
2017-May-16 16:48N 31°17' E 123°24'2812.6
2017-May-16 14:33N 31°07' E 122°53'711.9
2017-May-16 13:57N 31°05' E 122°45'711.8
2017-May-16 13:23N 31°05' E 122°38'612.2
2017-May-16 12:55N 31°05' E 122°31'611.7
2017-May-16 12:26N 31°05' E 122°24'1213.0
2017-May-16 11:31N 31°10' E 122°12'413.9
2017-May-16 11:14N 31°13' E 122°08'314.8
2017-May-16 11:00N 31°14' E 122°04'815.0
2017-May-16 10:30N 31°15' E 121°55'714.3
2017-May-16 10:01N 31°18' E 121°48'612.5
2017-May-16 09:30N 31°20' E 121°41'5 9.7
2017-May-16 09:00N 31°23' E 121°36'5 9.4
2017-May-16 08:30N 31°25' E 121°31'1 1.3
2017-May-16 07:56N 31°25' E 121°30'0 0.0
2017-May-16 07:26N 31°25' E 121°30'0 0.0
2017-May-16 06:53N 31°25' E 121°30'0 0.0
2017-May-16 06:29N 31°25' E 121°30'0 0.0
2017-May-16 05:56N 31°25' E 121°30'0 0.0
2017-May-16 05:29N 31°25' E 121°30'0 0.0
2017-May-16 04:59N 31°25' E 121°30'0 0.0
2017-May-16 04:29N 31°25' E 121°30'0 0.0
2017-May-16 03:47N 31°25' E 121°30'0 0.0
2017-May-16 03:29N 31°25' E 121°30'0 0.0
2017-May-16 02:59N 31°25' E 121°30'0 0.0
2017-May-16 02:29N 31°25' E 121°30'0 0.0
2017-May-16 01:47N 31°25' E 121°30'0 0.0
2017-May-16 01:26N 31°25' E 121°30'0 0.0
2017-May-16 00:59N 31°25' E 121°30'0 0.0
2017-May-16 00:23N 31°25' E 121°30'0 0.0
2017-May-15 23:53N 31°25' E 121°30'0 0.0
2017-May-15 23:29N 31°25' E 121°30'0 0.0
2017-May-15 22:56N 31°25' E 121°30'0 0.0
2017-May-15 22:20N 31°25' E 121°30'0 0.0
2017-May-15 21:59N 31°25' E 121°30'0 0.0
2017-May-15 21:29N 31°25' E 121°30'0 0.0
2017-May-15 20:50N 31°25' E 121°30'0 0.0
2017-May-15 20:26N 31°25' E 121°30'0 0.0
2017-May-15 19:47N 31°25' E 121°30'0 0.0
2017-May-15 19:29N 31°25' E 121°30'0 0.0
2017-May-15 18:50N 31°25' E 121°30'0 0.0
2017-May-15 18:26N 31°25' E 121°30'0 0.9
2017-May-15 18:00N 31°25' E 121°30'510.3
2017-May-15 17:30N 31°23' E 121°36'611.4
2017-May-15 16:57N 31°20' E 121°42'511.2
2017-May-15 16:30N 31°18' E 121°47'510.9
2017-May-15 16:00N 31°16' E 121°53'510.4
2017-May-15 15:31N 31°15' E 121°59'510.7
2017-May-15 15:00N 31°14' E 122°06'1212.3
2017-May-15 14:00N 31°07' E 122°17'713.7
2017-May-15 13:30N 31°06' E 122°25'612.9
2017-May-15 13:00N 31°11' E 122°31'917.4
2017-May-15 12:30N 31°19' E 122°33'815.6
2017-May-15 12:00N 31°23' E 122°41'816.2
2017-May-15 11:30N 31°26' E 122°50'816.0
2017-May-15 11:00N 31°27' E 122°59'816.0
2017-May-15 10:30N 31°29' E 123°08'  

Dump ship's entire track history